Alpha, California Weather observations

Data are for observation ending at time listed.
 Day   Time    Ave.   Ave.  Ave.  Vector   Max.   Stn.    Total    Solar   Ave.   Snow 
  of    of     Air    Rel.  Wind   Wind    Wind   Baro.  Precip.   Rad.    Soil   Depth
Year   Day     Temp.  Hum.  Speed  Dir.    Gust   Pres.                    Temp.       
2014   (PST)    F      %     mph   deg.    mph     mb.     in.     W/m2     F      in. 
---------------------------------------------------------------------------------------  
 232   15:40   62.7    45    3.1   206      8.0   787.0    0.00     175    999.0   72.0
 232   15:50   62.5    45    3.2   223      7.0   787.0    0.00     289    999.0  143.9
 232   16:00   62.3    45    2.8   208      7.2   787.0    0.00      78    999.0  114.4
 232   16:10   62.2    45    3.2   187      8.8   787.1    0.00      26    999.0   15.9
 232   16:20   62.1    46    3.6   182      9.1   787.1    0.00      60    999.0   19.9
 232   16:30   62.2    45    2.5   216      8.2   787.1    0.00      27    999.0   17.0
 232   16:40   62.3    45    3.4   216      7.6   787.1    0.00      24    999.0   16.1
 232   16:50   61.6    46    2.9   225      7.0   787.2    0.00      26    999.0   15.4
 232   17:00   60.6    48    2.6   232      7.9   787.2    0.00      40    999.0   74.1
 232   17:10   60.9    47    2.9   226      7.6   787.1    0.00      27    999.0  161.2
 232   17:20   60.4    48    2.4   226      5.7   787.1    0.00      33    999.0  161.6
 232   17:30   59.9    49    2.3   244      5.7   787.1    0.00      29    999.0  160.8
 232   17:40   59.6    50    2.5   204      7.5   787.1    0.00      34    999.0   32.1
 232   17:50   59.0    52    2.1   208      6.4   787.1    0.00      49    999.0   17.1
 232   18:00   59.0    52    2.2   223      6.3   787.0    0.00      60    999.0   20.1
 232   18:10   59.2    52    1.5   260      3.7   787.0    0.00      44    999.0   20.4
 232   18:20   58.4    54    1.6   211      3.4   787.1    0.00      31    999.0   45.9
 232   18:30   56.9    58    1.6   222      3.7   787.1    0.00      16    999.0  161.8
 232   18:40   55.9    60    0.9   255      2.6   787.0    0.00       7    999.0   87.6
 232   18:50   55.3    62    1.1   209      2.5   787.0    0.00       3    999.0   15.0
 232   19:00   54.7    63    1.4   213      3.3   787.0    0.00       1    999.0   15.5
 232   19:10   54.1    65    0.6   209      2.7   787.1    0.00       0    999.0   16.1
 232   19:20   53.6    66    0.0   248      0.5   787.1    0.00       0    999.0  144.3
 232   19:30   53.1    68    0.1   226      0.9   787.2    0.00       0    999.0  114.2
 232   19:40   52.7    69    0.3   220      1.9   787.3    0.00       0    999.0   29.5
 232   19:50   52.6    70    0.4   265      2.2   787.4    0.00       0    999.0   57.9
 232   20:00   52.8    70    1.1   292      2.1   787.4    0.00       0    999.0   58.4
 232   20:10   52.8    70    0.8   302      1.5   787.5    0.00       0    999.0   15.6
 232   20:20   52.6    70    0.9   333      2.6   787.6    0.00       0    999.0   15.0
 232   20:30   52.5    70    0.6   333      1.3   787.6    0.00       0    999.0   14.9
 232   20:40   52.4    71    0.6   333      1.2   787.7    0.00       0    999.0   16.0
 232   20:50   52.4    71    0.4   330      1.1   787.9    0.00       0    999.0   16.3
 232   21:00   52.6    70    0.2   321      1.3   787.9    0.00       0    999.0   16.9
 232   21:10   52.6    70    1.7   179      2.4   787.9    0.00       0    999.0   16.9
 232   21:20   52.7    70    1.8   168      2.9   787.9    0.00       0    999.0   16.1
 232   21:30   52.9    70    1.5   172      3.2   788.0    0.00       0    999.0   14.1
 232   21:40   53.0    70    1.6   194      3.4   788.0    0.00       0    999.0   13.5
 232   21:50   53.0    69    1.6   182      3.4   788.1    0.00       0    999.0   11.6
 232   22:00   52.8    70    1.2   191      2.0   788.0    0.00       0    999.0   11.6
 232   22:10   52.6    70    1.5   174      2.3   787.9    0.00       0    999.0   12.4
 232   22:20   52.3    71    2.1   172      2.9   788.0    0.00       0    999.0   12.3
 232   22:30   52.0    71    2.7   149      3.7   788.0    0.00       0    999.0   13.0
 232   22:40   51.9    70    2.4   162      3.4   788.0    0.00       0    999.0   13.4
 232   22:50   51.9    64    1.6   168      2.7   788.0    0.00       0    999.0   14.0
 232   23:00   52.2    56    2.8   161      4.4   788.0    0.00       0    999.0   44.2
 232   23:10   52.4    57    1.3   165      3.1   788.0    0.00       0    999.0   14.7
 232   23:20   52.1    60    1.4   139      2.6   788.0    0.00       0    999.0   44.7
 232   23:30   52.1    62    1.9   143      4.2   788.0    0.00       0    999.0  116.8
 232   23:40   52.4    62    3.9   142      6.6   788.0    0.00       0    999.0   43.6
 232   23:50   52.3    62    4.9   136      7.2   788.0    0.00       0    999.0  133.1
 233    0:00   52.4    62    2.6   143      7.5   788.0    0.00       0    999.0  161.9
 233    0:10   52.6    62    1.9   140      4.8   787.9    0.00       0    999.0  161.9
 233    0:20   52.7    62    3.5   145      5.6   788.0    0.00       0    999.0  131.6
 233    0:30   52.7    62    3.7   146      6.8   788.0    0.00       0    999.0   14.2
 233    0:40   52.8    62    3.0   145      5.3   788.0    0.00       0    999.0   14.1
 233    0:50   52.9    62    4.1   141      6.8   787.9    0.00       0    999.0   14.0
 233    1:00   52.6    62    5.7   131      8.6   787.9    0.00       0    999.0  118.3
 233    1:10   52.3    63    6.0   134     10.0   788.0    0.00       0    999.0  161.9
 233    1:20   52.1    63    5.9   143      8.8   787.9    0.00       0    999.0  161.9
 233    1:30   52.2    63    4.6   150      6.8   788.0    0.00       0    999.0  161.9
 233    1:40   52.3    63    3.0   162      5.3   788.0    0.00       0    999.0  161.9
 233    1:50   52.3    63    1.0   183      2.5   788.0    0.00       0    999.0   59.7
 233    2:00   52.1    63    0.0   257      0.2   788.0    0.00       0    999.0   17.0
 233    2:10   52.1    63    0.8   293      2.1   788.1    0.00       0    999.0   17.4
 233    2:20   52.3    62    1.1   270      2.5   788.1    0.00       0    999.0   17.5
 233    2:30   52.3    59    0.7   230      4.2   788.0    0.00       0    999.0   17.3
 233    2:40   52.6    56    2.0   175      5.8   788.0    0.00       0    999.0   31.7
 233    2:50   52.6    57    1.3   161      3.4   788.0    0.00       0    999.0   17.5
 233    3:00   52.4    57    2.7   152      5.1   787.9    0.00       0    999.0   15.8
 233    3:10   52.6    55    3.5   147      5.7   787.9    0.00       0    999.0   17.5
 233    3:20   52.8    54    2.0   156      3.0   787.9    0.00       0    999.0   18.4
 233    3:30   52.8    53    1.2   160      3.5   787.8    0.00       0    999.0   19.0
 233    3:40   52.6    53    0.7   105      1.8   787.8    0.00       0    999.0   18.8
 233    3:50   52.6    50    1.5   124      3.0   787.7    0.00       0    999.0   18.9
 233    4:00   52.7    50    1.0   145      2.9   787.7    0.00       0    999.0   19.1
 233    4:10   52.7    48    1.0   153      2.1   787.6    0.00       0    999.0   76.7
 233    4:20   52.8    46    1.6   142      3.7   787.7    0.00       0    999.0  145.5
 233    4:30   53.1    44    2.8   139      5.0   787.7    0.00       0    999.0   30.7
 233    4:40   53.3    43    2.8   152      4.4   787.8    0.00       0    999.0   15.4
 233    4:50   53.4    42    3.2   140      5.6   787.8    0.00       0    999.0   15.6
 233    5:00   53.4    41    2.9   145      5.5   787.8    0.00       0    999.0   17.0
 233    5:10   53.3    40    2.9   146      4.2   787.9    0.00       0    999.0   17.7
 233    5:20   53.3    40    4.0   141      9.6   787.9    0.00       1    999.0   18.4
 233    5:30   53.2    41    5.1   131      7.1   788.0    0.00       3    999.0   15.1
 233    5:40   53.0    41    5.0   133      8.2   788.1    0.00       6    999.0   17.0
 233    5:50   53.3    41    5.1   130      7.1   788.1    0.00       9    999.0   15.9
 233    6:00   53.7    40    6.0   133      8.6   788.2    0.00      12    999.0  129.9
 233    6:10   53.7    40    5.8   133      9.3   788.3    0.00      15    999.0  157.6
 233    6:20   53.9    40    6.4   129     11.7   788.4    0.00      27    999.0  115.9
 233    6:30   54.6    40    5.1   135      8.6   788.5    0.00      88    999.0   71.9
 233    6:40   55.3    39    3.8   137      8.4   788.6    0.00     118    999.0  114.4
 233    6:50   56.4    37    3.8   136      7.6   788.7    0.00     145    999.0  104.5
 233    7:00   57.1    36    3.8   143      7.7   788.8    0.00     169    999.0  162.0
 233    7:10   57.3    35    4.4   136      8.8   788.8    0.00     194    999.0  162.1
 233    7:20   57.1    34    5.8   139     10.0   788.9    0.00     211    999.0  162.2
 233    7:30   57.5    35    4.6   143      8.5   788.9    0.00      53    999.0  162.2
 233    7:40   57.9    34    4.9   144      7.5   789.0    0.00     125    999.0  162.2
 233    7:50   57.7    34    5.3   148      9.2   789.0    0.00     296    999.0  162.2
 233    8:00   58.2    33    4.7   148      8.5   789.0    0.00     321    999.0  162.2
 233    8:10   58.5    33    4.8   145      7.6   789.0    0.00     346    999.0  162.2
 233    8:20   58.9    33    5.4   142      8.6   789.0    0.00     370    999.0  162.0
 233    8:30   59.5    32    5.4   145     10.3   789.1    0.00     394    999.0  162.1
 233    8:40   59.8    32    6.1   143     10.7   789.1    0.00     416    999.0  162.0
 233    8:50   59.6    31    5.5   143     10.8   789.2    0.00     438    999.0  162.0
 233    9:00   60.8    31    4.7   143      8.6   789.3    0.00     457    999.0  161.8
 233    9:10   60.7    31    3.6   158      8.7   789.3    0.00     477    999.0  161.8
 233    9:20   61.4    31    2.6   226      6.5   789.3    0.00     496    999.0  161.5
 233    9:30   61.6    32    2.3   208      6.0   789.4    0.00     514    999.0  161.6
 233    9:40   62.4    30    2.1   265      4.9   789.5    0.00     533    999.0  161.3
 233    9:50   62.8    30    2.5   228      8.3   789.5    0.00     549    999.0  161.7
 233   10:00   63.6    30    2.3   249      6.9   789.5    0.00     564    999.0  161.6
 233   10:10   63.8    29    2.5   191      7.7   789.5    0.00     579    999.0  161.8
 233   10:20   64.5    29    2.7   192      8.8   789.5    0.00     592    999.0  161.8
 233   10:30   63.5    30    2.7   230      6.6   789.6    0.00     604    999.0  161.7
 233   10:40   64.6    30    3.0   217      9.9   789.5    0.00     615    999.0  161.9
 233   10:50   64.3    31    4.7   181      8.8   789.5    0.00     625    999.0  161.9
 233   11:00   64.2    32    3.2   196     11.5   789.5    0.00     633    999.0  162.0
 233   11:10   65.3    32    3.9   189      9.5   789.5    0.00     639    999.0  162.1
 233   11:20   65.4    32    3.3   228      8.9   789.5    0.00     645    999.0  162.1
 233   11:30   64.6    33    3.6   248      8.4   789.5    0.00     650    999.0  162.1
 233   11:40   64.4    35    3.5   226     10.2   789.5    0.00     652    999.0  162.1
 233   11:50   64.8    34    4.1   202     11.0   789.5    0.00     656    999.0  162.1
 233   12:00   65.6    35    2.3   252      8.0   789.5    0.00     656    999.0  161.9
 233   12:10   66.2    34    3.5   216      7.8   789.6    0.00     656    999.0  162.0
 233   12:20   67.0    34    3.1   205      8.9   789.6    0.00     652    999.0  162.0
 233   12:30   66.5    35    4.2   191     10.6   789.6    0.00     649    999.0  162.0
 233   12:40   67.0    34    3.4   207      7.1   789.5    0.00     646    999.0  161.9
 233   12:50   66.6    35    3.8   199     11.3   789.5    0.00     640    999.0  161.9
 233   13:00   66.6    35    3.2   219      8.9   789.6    0.00     632    999.0  161.9
 233   13:10   66.2    35    3.2   227      9.7   789.5    0.00     624    999.0  161.9
 233   13:20   66.1    36    3.3   223      9.7   789.5    0.00     616    999.0  161.9
 233   13:30   66.2    36    3.9   212     11.4   789.4    0.00     607    999.0  161.9
 233   13:40   66.8    35    3.1   221      6.9   789.5    0.00     595    999.0  161.9
 233   13:50   66.7    36    3.7   212     10.4   789.5    0.00     582    999.0  161.9
 233   14:00   66.5    36    3.2   203     11.3   789.4    0.00     566    999.0  161.9
 233   14:10   65.9    37    4.2   200     12.3   789.3    0.00     554    999.0  161.9
 233   14:20   64.7    40    3.5   207      9.4   789.3    0.00     534    999.0  161.9
 233   14:30   64.8    40    3.6   239      8.4   789.3    0.00     517    999.0  161.9
 233   14:40   65.0    40    3.4   245     10.9   789.2    0.00     501    999.0  161.9
 233   14:50   64.8    41    3.3   235      9.3   789.3    0.00     480    999.0  161.8
 233   15:00   65.3    41    2.9   244      9.5   789.3    0.00     459    999.0  161.9
 233   15:10   64.4    42    3.6   211     10.7   789.2    0.00     366    999.0  146.1
 233   15:20   64.2    43    3.7   248     12.0   789.3    0.00     102    999.0   14.3
 233   15:30   63.9    44    3.3   231      9.1   789.3    0.00     124    999.0   14.5

Return to Alpha graphs page.


Western Regional Climate Center,wrcc@dri.edu